createdAt,value
2022-11-05T00:00:33.631Z,6.40
2022-11-05T00:03:19.478Z,7.25
2022-11-05T00:06:07.226Z,4.40
2022-11-05T00:08:52.633Z,7.53
2022-11-05T00:11:39.525Z,5.63
2022-11-05T00:14:25.106Z,8.95
2022-11-05T00:16:51.959Z,4.22
2022-11-05T00:19:18.833Z,5.90
2022-11-05T00:22:04.279Z,4.85
2022-11-05T00:24:49.377Z,6.90
2022-11-05T00:27:16.278Z,5.80
2022-11-05T00:29:43.149Z,5.28
2022-11-05T00:32:10.135Z,5.22
2022-11-05T00:34:37.173Z,5.43
2022-11-05T00:37:04.025Z,5.97
2022-11-05T00:39:30.858Z,4.75
2022-11-05T00:42:16.138Z,4.50
2022-11-05T00:45:01.333Z,8.60
2022-11-05T00:47:46.919Z,6.15
2022-11-05T00:50:14.175Z,5.05
2022-11-05T00:52:55.966Z,3.67
2022-11-05T00:55:40.751Z,6.63
2022-11-05T00:58:14.506Z,8.13
2022-11-05T01:00:43.905Z,4.43
2022-11-05T01:03:14.210Z,5.47
2022-11-05T01:05:44.312Z,4.35
2022-11-05T01:08:12.737Z,3.83
2022-11-05T01:10:41.777Z,5.22
2022-11-05T01:13:12.706Z,5.53
2022-11-05T01:15:41.105Z,4.75
2022-11-05T01:18:08.138Z,7.55
2022-11-05T01:20:35.035Z,4.65
2022-11-05T01:23:02.014Z,7.03
2022-11-05T01:25:29.023Z,6.57
2022-11-05T01:27:56.211Z,5.18
2022-11-05T01:30:23.756Z,7.85
2022-11-05T01:32:50.939Z,4.78
2022-11-05T01:35:18.594Z,6.32
2022-11-05T01:37:46.312Z,5.28
2022-11-05T01:40:19.234Z,4.22
2022-11-05T01:42:46.373Z,6.72
2022-11-05T01:45:27.282Z,5.93
2022-11-05T01:48:05.075Z,6.35
2022-11-05T01:50:58.214Z,6.38
2022-11-05T01:53:45.326Z,9.48
2022-11-05T01:56:36.165Z,5.43
2022-11-05T01:59:08.536Z,6.40
2022-11-05T02:01:35.861Z,6.63
2022-11-05T02:04:10.237Z,6.40
2022-11-05T02:06:46.227Z,5.97
2022-11-05T02:09:20.777Z,7.82
2022-11-05T02:11:49.824Z,6.50
2022-11-05T02:14:16.993Z,5.95
2022-11-05T02:16:55.619Z,9.90
2022-11-05T02:19:39.954Z,5.15
2022-11-05T02:22:12.705Z,6.32
2022-11-05T02:25:01.900Z,6.47
2022-11-05T02:27:47.529Z,9.25
2022-11-05T02:30:46.415Z,6.72
2022-11-05T02:33:25.087Z,7.53
2022-11-05T02:36:31.573Z,6.45
2022-11-05T02:39:27.693Z,7.55
2022-11-05T02:42:16.078Z,10.02
2022-11-05T02:44:56.983Z,7.25
2022-11-05T02:47:28.472Z,5.72
2022-11-05T02:50:15.057Z,5.90
2022-11-05T02:53:06.226Z,6.10
2022-11-05T02:55:49.884Z,5.95
2022-11-05T02:58:16.961Z,7.18
2022-11-05T03:00:52.962Z,6.72
2022-11-05T03:03:26.530Z,10.70
2022-11-05T03:06:09.230Z,9.48
2022-11-05T03:09:04.129Z,8.65
2022-11-05T03:11:35.999Z,7.78
2022-11-05T03:14:07.510Z,7.20
2022-11-05T03:16:49.778Z,5.22
2022-11-05T03:19:44.131Z,7.45
2022-11-05T03:22:33.745Z,7.45
2022-11-05T03:25:12.206Z,9.05
2022-11-05T03:27:43.167Z,8.02
2022-11-05T03:30:12.862Z,7.60
2022-11-05T03:32:46.548Z,8.07
2022-11-05T03:35:24.698Z,9.07
2022-11-05T03:37:55.623Z,12.95
2022-11-05T03:40:25.012Z,9.18
2022-11-05T03:42:56.576Z,8.48
2022-11-05T03:45:30.998Z,7.18
2022-11-05T03:48:01.535Z,6.72
2022-11-05T03:50:53.260Z,8.95
2022-11-05T03:53:30.067Z,7.40
2022-11-05T03:56:09.123Z,8.27
2022-11-05T03:58:36.723Z,6.82
2022-11-05T04:01:04.279Z,6.93
2022-11-05T04:03:36.460Z,7.30
2022-11-05T04:06:23.974Z,8.35
2022-11-05T04:09:09.566Z,7.75
2022-11-05T04:11:55.134Z,6.05
2022-11-05T04:14:22.244Z,8.65
2022-11-05T04:17:07.449Z,6.55
2022-11-05T04:20:03.280Z,8.77
2022-11-05T04:22:53.183Z,7.65
2022-11-05T04:25:21.137Z,8.60
2022-11-05T04:27:48.456Z,10.07
2022-11-05T04:30:20.341Z,9.90
2022-11-05T04:33:09.059Z,8.45
2022-11-05T04:35:45.180Z,7.93
2022-11-05T04:38:20.096Z,7.20
2022-11-05T04:40:48.207Z,10.10
2022-11-05T04:43:19.023Z,10.15
2022-11-05T04:45:46.616Z,10.00
2022-11-05T04:48:13.631Z,6.32
2022-11-05T04:50:40.462Z,7.82
2022-11-05T04:53:07.285Z,8.18
2022-11-05T04:55:34.099Z,7.68
2022-11-05T04:58:01.053Z,9.07
2022-11-05T05:00:27.954Z,8.48
2022-11-05T05:02:54.774Z,7.13
2022-11-05T05:05:23.011Z,9.15
2022-11-05T05:07:50.050Z,9.27
2022-11-05T05:10:16.897Z,7.70
2022-11-05T05:12:43.715Z,7.65
2022-11-05T05:15:10.655Z,6.95
2022-11-05T05:17:37.510Z,8.05
2022-11-05T05:20:22.808Z,7.13
2022-11-05T05:22:54.019Z,10.93
2022-11-05T05:25:21.966Z,6.55
2022-11-05T05:27:48.841Z,6.60
2022-11-05T05:30:15.867Z,7.07
2022-11-05T05:32:42.830Z,7.95
2022-11-05T05:35:10.111Z,7.50
2022-11-05T05:37:39.615Z,10.90
2022-11-05T05:40:07.149Z,9.27
2022-11-05T05:42:37.472Z,8.88
2022-11-05T05:45:07.480Z,7.72
2022-11-05T05:47:34.290Z,8.10
2022-11-05T05:50:01.214Z,8.88
2022-11-05T05:52:28.032Z,8.32
2022-11-05T05:54:54.853Z,9.55
2022-11-05T05:57:21.680Z,8.68
2022-11-05T05:59:48.558Z,10.15
2022-11-05T06:02:15.975Z,8.05
2022-11-05T06:04:43.033Z,8.80
2022-11-05T06:07:09.777Z,10.32
2022-11-05T06:09:36.537Z,8.88
2022-11-05T06:12:03.512Z,12.93
2022-11-05T06:14:30.363Z,8.13
2022-11-05T06:16:57.191Z,9.07
2022-11-05T06:19:23.963Z,8.85
2022-11-05T06:21:50.856Z,9.02
2022-11-05T06:24:17.620Z,8.48
2022-11-05T06:26:45.073Z,9.63
2022-11-05T06:29:12.016Z,9.15
2022-11-05T06:31:38.870Z,10.05
2022-11-05T06:34:05.758Z,8.93
2022-11-05T06:36:32.781Z,8.57
2022-11-05T06:38:59.585Z,10.25
2022-11-05T06:41:26.431Z,9.40
2022-11-05T06:43:53.320Z,9.25
2022-11-05T06:46:20.136Z,10.38
2022-11-05T06:48:47.513Z,9.50
2022-11-05T06:51:14.413Z,8.88
2022-11-05T06:53:41.510Z,9.23
2022-11-05T06:56:08.406Z,9.98
2022-11-05T06:58:35.454Z,10.25
2022-11-05T07:01:04.048Z,7.95
2022-11-05T07:03:31.184Z,10.45
2022-11-05T07:06:00.780Z,9.90
2022-11-05T07:08:32.894Z,9.98
2022-11-05T07:11:00.201Z,9.90
2022-11-05T07:13:27.457Z,10.48
2022-11-05T07:15:54.307Z,11.15
2022-11-05T07:18:21.440Z,10.45
2022-11-05T07:20:49.174Z,10.48
2022-11-05T07:23:16.739Z,10.00
2022-11-05T07:25:46.246Z,11.95
2022-11-05T07:28:14.456Z,9.93
2022-11-05T07:30:41.487Z,7.45
2022-11-05T07:33:08.891Z,9.98
2022-11-05T07:35:36.150Z,10.30
2022-11-05T07:38:03.207Z,9.85
2022-11-05T07:40:30.398Z,9.20
2022-11-05T07:42:59.906Z,11.20
2022-11-05T07:45:28.181Z,10.38
2022-11-05T07:48:00.546Z,12.32
2022-11-05T07:50:30.808Z,10.38
2022-11-05T07:53:11.161Z,17.35
2022-11-05T07:55:40.217Z,12.80
2022-11-05T07:58:07.106Z,12.88
2022-11-05T08:00:34.419Z,10.45
2022-11-05T08:03:08.153Z,11.20
2022-11-05T08:05:37.839Z,10.55
2022-11-05T08:08:06.113Z,11.52
2022-11-05T08:10:34.340Z,9.05
2022-11-05T08:13:01.441Z,10.18
2022-11-05T08:15:28.684Z,8.43
2022-11-05T08:18:03.354Z,9.13
2022-11-05T08:20:30.964Z,8.00
2022-11-05T08:22:58.269Z,8.38
2022-11-05T08:25:25.321Z,8.60
2022-11-05T08:27:56.989Z,8.70
2022-11-05T08:30:24.328Z,10.85
2022-11-05T08:32:51.398Z,7.85
2022-11-05T08:35:18.302Z,9.63
2022-11-05T08:37:45.136Z,6.75
2022-11-05T08:40:12.430Z,10.00
2022-11-05T08:42:39.359Z,9.27
2022-11-05T08:45:07.667Z,11.02
2022-11-05T08:47:34.491Z,7.07
2022-11-05T08:50:01.353Z,8.40
2022-11-05T08:52:28.206Z,8.18
2022-11-05T08:54:55.038Z,10.63
2022-11-05T08:57:22.013Z,7.25
2022-11-05T08:59:48.799Z,8.73
2022-11-05T09:02:15.715Z,9.13
2022-11-05T09:04:42.688Z,10.25
2022-11-05T09:07:09.596Z,6.82
2022-11-05T09:09:36.419Z,7.32
2022-11-05T09:12:12.374Z,7.40
2022-11-05T09:14:39.741Z,7.93
2022-11-05T09:17:22.829Z,6.47
2022-11-05T09:19:49.666Z,7.22
2022-11-05T09:22:16.581Z,6.20
2022-11-05T09:24:43.713Z,7.95
2022-11-05T09:27:13.201Z,5.85
2022-11-05T09:29:41.064Z,7.68
2022-11-05T09:32:08.677Z,6.68
2022-11-05T09:34:36.137Z,6.25
2022-11-05T09:37:03.001Z,7.60
2022-11-05T09:39:30.384Z,6.20
2022-11-05T09:42:02.841Z,7.95
2022-11-05T09:44:41.658Z,8.52
2022-11-05T09:47:19.263Z,11.55
2022-11-05T09:49:50.345Z,10.90
2022-11-05T09:52:23.621Z,7.55
2022-11-05T09:54:50.705Z,10.25
2022-11-05T09:57:27.396Z,5.75
2022-11-05T09:59:57.584Z,8.68
2022-11-05T10:02:39.108Z,5.60
2022-11-05T10:05:10.234Z,9.02
2022-11-05T10:07:59.385Z,5.43
2022-11-05T10:10:47.658Z,5.90
2022-11-05T10:13:32.539Z,7.25
2022-11-05T10:16:08.424Z,6.57
2022-11-05T10:18:39.532Z,5.68
2022-11-05T10:21:07.502Z,6.22
2022-11-05T10:23:34.842Z,10.10
2022-11-05T10:26:13.972Z,6.75
2022-11-05T10:28:40.826Z,4.72
2022-11-05T10:31:12.140Z,6.38
2022-11-05T10:33:43.773Z,5.78
2022-11-05T10:36:15.778Z,6.93
2022-11-05T10:38:42.632Z,7.75
2022-11-05T10:41:15.712Z,5.55
2022-11-05T10:43:50.648Z,5.30
2022-11-05T10:46:23.727Z,6.35
2022-11-05T10:49:19.292Z,7.57
2022-11-05T10:51:52.504Z,5.60
2022-11-05T10:54:22.645Z,7.10
2022-11-05T10:56:49.525Z,5.90
2022-11-05T10:59:28.493Z,7.55
2022-11-05T11:02:13.834Z,10.10
2022-11-05T11:04:41.331Z,7.25
2022-11-05T11:07:21.896Z,6.18
2022-11-05T11:09:49.811Z,7.13
2022-11-05T11:12:24.655Z,7.18
2022-11-05T11:15:04.831Z,8.05
2022-11-05T11:17:32.742Z,9.52
2022-11-05T11:20:29.642Z,4.95
2022-11-05T11:23:15.037Z,6.55
2022-11-05T11:25:50.894Z,4.15
2022-11-05T11:28:24.437Z,4.43
2022-11-05T11:31:01.902Z,7.70
2022-11-05T11:33:29.590Z,5.45
2022-11-05T11:35:57.834Z,3.92
2022-11-05T11:38:26.334Z,6.05
2022-11-05T11:41:03.650Z,5.43
2022-11-05T11:43:35.263Z,3.97
2022-11-05T11:46:09.913Z,3.15
2022-11-05T11:48:41.082Z,6.70
2022-11-05T11:51:34.192Z,6.10
2022-11-05T11:54:02.112Z,5.10
2022-11-05T11:56:30.376Z,6.07
2022-11-05T11:59:02.483Z,5.22
2022-11-05T12:01:48.369Z,4.15
2022-11-05T12:04:26.931Z,4.63
2022-11-05T12:07:12.030Z,3.38
2022-11-05T12:09:56.982Z,4.20
2022-11-05T12:12:44.557Z,3.00
2022-11-05T12:15:50.534Z,3.88
2022-11-05T12:18:26.140Z,3.08
2022-11-05T12:21:51.353Z,3.17
2022-11-05T12:24:24.465Z,6.22
2022-11-05T12:27:33.474Z,5.28
2022-11-05T12:30:16.499Z,3.45
2022-11-05T12:33:27.269Z,5.20
2022-11-05T12:36:31.030Z,3.55
2022-11-05T12:39:36.617Z,4.35
2022-11-05T12:42:29.542Z,6.38
2022-11-05T12:45:35.129Z,3.42
2022-11-05T12:48:11.235Z,4.85
2022-11-05T12:51:02.279Z,4.10
2022-11-05T12:53:40.580Z,2.97
2022-11-05T12:56:16.295Z,4.15
2022-11-05T12:58:57.489Z,6.03
2022-11-05T13:01:48.949Z,3.10
2022-11-05T13:04:34.579Z,3.53
2022-11-05T13:07:07.652Z,4.97
2022-11-05T13:09:58.457Z,4.65
2022-11-05T13:12:28.161Z,5.57
2022-11-05T13:15:02.655Z,6.35
2022-11-05T13:18:00.035Z,3.28
2022-11-05T13:20:31.416Z,3.42
2022-11-05T13:23:26.160Z,4.07
2022-11-05T13:26:00.016Z,6.50
2022-11-05T13:28:40.874Z,4.63
2022-11-05T13:31:14.998Z,5.50
2022-11-05T13:33:45.997Z,4.22
2022-11-05T13:36:49.980Z,4.13
2022-11-05T13:39:49.862Z,4.97
2022-11-05T13:42:46.895Z,5.75
2022-11-05T13:45:29.008Z,7.68
2022-11-05T13:48:33.214Z,7.07
2022-11-05T13:50:59.955Z,5.65
2022-11-05T13:53:47.952Z,4.47
2022-11-05T13:56:29.898Z,4.57
2022-11-05T13:59:15.343Z,4.35
2022-11-05T14:02:04.635Z,4.40
2022-11-05T14:05:00.530Z,7.05
2022-11-05T14:07:31.527Z,6.28
2022-11-05T14:10:11.890Z,6.95
2022-11-05T14:12:40.260Z,5.63
2022-11-05T14:15:29.748Z,4.90
2022-11-05T14:18:02.800Z,4.63
2022-11-05T14:20:32.575Z,4.78
2022-11-05T14:23:17.838Z,6.50
2022-11-05T14:25:44.672Z,6.00
2022-11-05T14:28:36.568Z,4.50
2022-11-05T14:31:13.432Z,5.78
2022-11-05T14:33:53.799Z,5.70
2022-11-05T14:36:20.608Z,4.97
2022-11-05T14:38:50.668Z,6.07
2022-11-05T14:41:21.256Z,5.05
2022-11-05T14:44:06.472Z,3.40
2022-11-05T14:46:49.605Z,8.00
2022-11-05T14:49:49.189Z,4.28
2022-11-05T14:52:35.772Z,3.13
2022-11-05T14:55:03.477Z,3.90
2022-11-05T14:57:54.917Z,6.07
2022-11-05T15:00:40.437Z,3.95
2022-11-05T15:03:56.905Z,3.72
2022-11-05T15:06:30.130Z,4.90
2022-11-05T15:09:28.998Z,3.35
2022-11-05T15:11:55.983Z,4.43
2022-11-05T15:15:00.161Z,4.78
2022-11-05T15:17:31.869Z,5.25
2022-11-05T15:20:24.162Z,5.43
2022-11-05T15:22:57.170Z,6.68
2022-11-05T15:25:53.849Z,5.05
2022-11-05T15:28:41.088Z,7.40
2022-11-05T15:31:14.192Z,12.70
2022-11-05T15:33:42.865Z,9.30
2022-11-05T15:36:30.666Z,6.60
2022-11-05T15:41:47.110Z,7.10
2022-11-05T15:44:25.989Z,8.70
2022-11-05T15:47:16.513Z,6.00
2022-11-05T15:49:46.845Z,5.38
2022-11-05T15:52:16.392Z,6.50
2022-11-05T15:54:43.853Z,8.88
2022-11-05T15:57:30.078Z,8.05
2022-11-05T15:59:56.965Z,6.20
2022-11-05T16:02:42.553Z,5.22
2022-11-05T16:05:14.527Z,8.77
2022-11-05T16:08:02.023Z,6.63
2022-11-05T16:10:31.938Z,8.90
2022-11-05T16:13:38.350Z,7.75
2022-11-05T16:16:15.778Z,6.13
2022-11-05T16:18:44.547Z,7.32
2022-11-05T16:21:18.755Z,8.68
2022-11-05T16:23:48.711Z,8.10
2022-11-05T16:27:01.214Z,10.05
2022-11-05T16:29:30.318Z,6.15
2022-11-05T16:31:58.992Z,6.13
2022-11-05T16:34:30.287Z,6.13
2022-11-05T16:36:58.976Z,6.63
2022-11-05T16:39:26.058Z,5.68
2022-11-05T16:41:52.966Z,5.70
2022-11-05T16:44:19.878Z,6.03
2022-11-05T16:46:49.007Z,8.82
2022-11-05T16:49:16.891Z,7.13
2022-11-05T16:51:43.889Z,10.02
2022-11-05T16:54:10.739Z,7.57
2022-11-05T16:56:39.913Z,5.90
2022-11-05T16:59:10.465Z,6.00
2022-11-05T17:01:41.027Z,7.95
2022-11-05T17:04:09.562Z,6.72
2022-11-05T17:06:39.305Z,6.18
2022-11-05T17:09:11.803Z,8.55
2022-11-05T17:11:39.132Z,8.43
2022-11-05T17:14:07.960Z,9.20
2022-11-05T17:16:38.293Z,7.50
2022-11-05T17:19:05.177Z,6.70
2022-11-05T17:21:31.984Z,6.72
2022-11-05T17:23:58.822Z,6.53
2022-11-05T17:26:25.657Z,8.68
2022-11-05T17:28:52.452Z,9.50
2022-11-05T17:31:19.731Z,6.05
2022-11-05T17:33:46.759Z,9.02
2022-11-05T17:36:32.084Z,8.05
2022-11-05T17:38:58.964Z,6.60
2022-11-05T17:41:25.825Z,8.32
2022-11-05T17:43:57.853Z,10.60
2022-11-05T17:46:42.769Z,8.00
2022-11-05T17:49:09.670Z,7.50
2022-11-05T17:51:36.533Z,8.32
2022-11-05T17:54:04.052Z,8.50
2022-11-05T17:56:35.002Z,8.73
2022-11-05T17:59:03.657Z,6.70
2022-11-05T18:01:33.474Z,7.70
2022-11-05T18:04:07.164Z,6.40
2022-11-05T18:06:39.680Z,6.97
2022-11-05T18:09:25.158Z,8.23
2022-11-05T18:11:52.092Z,6.72
2022-11-05T18:14:23.892Z,9.52
2022-11-05T18:16:51.727Z,8.10
2022-11-05T18:19:18.675Z,6.43
2022-11-05T18:21:45.556Z,7.80
2022-11-05T18:24:12.502Z,7.80
2022-11-05T18:26:39.437Z,5.90
2022-11-05T18:29:06.616Z,7.28
2022-11-05T18:31:33.611Z,6.43
2022-11-05T18:34:00.764Z,5.63
2022-11-05T18:36:30.494Z,8.57
2022-11-05T18:39:15.517Z,7.00
2022-11-05T18:41:42.631Z,8.32
2022-11-05T18:44:12.681Z,6.35
2022-11-05T18:49:27.355Z,7.75
2022-11-05T18:51:54.473Z,6.45
2022-11-05T18:54:21.434Z,6.90
2022-11-05T18:56:48.555Z,7.13
2022-11-05T19:02:05.765Z,9.35
2022-11-05T19:04:32.905Z,8.60
2022-11-05T19:07:04.398Z,6.85
2022-11-05T19:09:32.433Z,7.05
2022-11-05T19:11:59.278Z,7.55
2022-11-05T19:14:26.174Z,5.88
2022-11-05T19:16:53.179Z,6.15
2022-11-05T19:19:20.185Z,6.35
2022-11-05T19:21:47.031Z,7.05
2022-11-05T19:24:17.451Z,4.40
2022-11-05T19:26:44.921Z,5.95
2022-11-05T19:29:12.565Z,6.65
2022-11-05T19:31:39.579Z,6.05
2022-11-05T19:34:09.292Z,4.38
2022-11-05T19:36:36.233Z,7.13
2022-11-05T19:39:06.504Z,6.35
2022-11-05T19:41:33.719Z,6.78
2022-11-05T19:44:03.961Z,8.05
2022-11-05T19:46:31.820Z,5.15
2022-11-05T19:49:01.100Z,6.57
2022-11-05T19:51:31.404Z,6.43
2022-11-05T19:54:00.522Z,5.47
2022-11-05T19:56:30.650Z,4.93
2022-11-05T19:59:03.068Z,6.32
2022-11-05T20:01:42.303Z,6.55
2022-11-05T20:04:11.976Z,5.13
2022-11-05T20:06:40.169Z,4.25
2022-11-05T20:09:27.091Z,9.65
2022-11-05T20:11:56.236Z,6.35
2022-11-05T20:14:24.958Z,3.97
2022-11-05T20:16:52.923Z,5.13
2022-11-05T20:19:23.380Z,5.82
2022-11-05T20:22:08.883Z,4.60
2022-11-05T20:24:35.837Z,4.88
2022-11-05T20:27:02.871Z,7.13
2022-11-05T20:29:35.356Z,6.20
2022-11-05T20:32:04.154Z,5.85
2022-11-05T20:34:32.499Z,7.05
2022-11-05T20:36:59.648Z,4.55
2022-11-05T20:39:26.686Z,7.10
2022-11-05T20:42:12.923Z,5.35
2022-11-05T20:44:39.902Z,5.70
2022-11-05T20:47:06.855Z,4.90
2022-11-05T20:49:33.988Z,5.25
2022-11-05T20:52:00.808Z,4.97
2022-11-05T20:54:28.519Z,5.40
2022-11-05T20:57:13.772Z,5.85
2022-11-05T20:59:40.664Z,6.45
2022-11-05T21:02:07.680Z,5.25
2022-11-05T21:04:34.837Z,6.78
2022-11-05T21:07:01.865Z,9.25
2022-11-05T21:09:29.013Z,10.25
2022-11-05T21:12:11.278Z,7.63
2022-11-05T21:14:39.971Z,7.05
2022-11-05T21:17:07.869Z,7.13
2022-11-05T21:19:35.882Z,6.90
2022-11-05T21:22:04.681Z,9.30
2022-11-05T21:24:35.384Z,7.60
2022-11-05T21:27:02.415Z,6.65
2022-11-05T21:29:29.271Z,6.47
2022-11-05T21:31:56.362Z,5.80
2022-11-05T21:34:23.537Z,8.00
2022-11-05T21:36:51.507Z,6.80
2022-11-05T21:39:19.301Z,6.85
2022-11-05T21:42:04.903Z,8.57
2022-11-05T21:44:31.836Z,9.00
2022-11-05T21:47:11.032Z,6.40
2022-11-05T21:49:56.495Z,6.93
2022-11-05T21:52:42.948Z,7.93
2022-11-05T21:55:30.234Z,7.47
2022-11-05T21:58:17.396Z,6.90
2022-11-05T22:01:03.503Z,5.20
2022-11-05T22:03:30.419Z,6.60
2022-11-05T22:06:16.086Z,9.20
2022-11-05T22:08:42.967Z,7.15
2022-11-05T22:11:09.881Z,5.97
2022-11-05T22:13:36.711Z,5.85
2022-11-05T22:16:21.886Z,6.32
2022-11-05T22:18:48.790Z,4.93
2022-11-05T22:21:21.315Z,5.70
2022-11-05T22:23:52.103Z,10.15
2022-11-05T22:26:40.702Z,6.88
2022-11-05T22:29:08.090Z,6.55
2022-11-05T22:31:53.765Z,4.30
2022-11-05T22:34:21.270Z,5.45
2022-11-05T22:36:54.494Z,5.25
2022-11-05T22:39:21.933Z,4.63
2022-11-05T22:41:58.577Z,6.05
2022-11-05T22:44:26.615Z,6.13
2022-11-05T22:46:53.805Z,7.15
2022-11-05T22:49:21.015Z,5.68
2022-11-05T22:52:06.713Z,4.20
2022-11-05T22:54:38.757Z,5.35
2022-11-05T22:57:06.332Z,4.28
2022-11-05T22:59:45.655Z,4.93
2022-11-05T23:02:12.729Z,4.50
2022-11-05T23:04:40.003Z,5.45
2022-11-05T23:07:27.953Z,7.15
2022-11-05T23:10:14.099Z,5.40
2022-11-05T23:12:43.100Z,3.72
2022-11-05T23:15:30.626Z,6.70
2022-11-05T23:18:15.948Z,7.70
2022-11-05T23:21:01.296Z,8.27
2022-11-05T23:24:04.771Z,6.05
2022-11-05T23:26:51.703Z,7.45
2022-11-05T23:29:37.257Z,6.28
2022-11-05T23:32:22.704Z,5.10
2022-11-05T23:34:50.722Z,5.88
2022-11-05T23:37:36.612Z,5.63
2022-11-05T23:40:06.267Z,4.07
2022-11-05T23:42:52.033Z,4.18
2022-11-05T23:45:37.411Z,5.75
2022-11-05T23:48:18.189Z,5.43
2022-11-05T23:50:48.241Z,5.88
2022-11-05T23:53:15.622Z,6.55
2022-11-05T23:55:42.894Z,4.60
2022-11-05T23:58:11.145Z,3.63
